Terminal Aerodrome Forecast
Issued by NWS

Home | Current Version | Previous Version | Text Only | Print | Product List | Glossary On
Versions: 1 2 3 4 5 6 7 8 9 10 11 12 13 14 15 16 17 18 19 20 21 22 23 24
000
FTUS41 KBGM 201100
TAFRME
TAF
KRME 201123Z 2012/2112 VRB02KT P6SM OVC018
      TEMPO 2014/2018 SCT018
     FM201800 VRB02KT P6SM BKN020
     FM202200 VRB02KT P6SM SCT025
     FM210800 VRB02KT 4SM BR SCT030=

USA.gov is the U.S. government's official web portal to all federal, state and local government web resources and services.